Aeroporto :
LOGIN :

Iscrizione | Disclaimer

   EN    FR    IT 

 










Sommario :    VFR   VFR Marginale   IFR   IFR Intensivo   IFR Molto Intensivo
Visibilità : 
Base nubi : 
>= 8 km
>= 3000ft
5 / 8 km
1000 / 3000 ft
1500m / 5 km
500 / 1000 ft
800 / 1500m
200 / 500 ft
< 800m
< 200 ft
Simboli :   Temporali  Nebbia  Neve Forte  Precipitazioni Forti  Vento > 20 kt
SIGMETs :   Varie  Temporali  Ghiacco  Turbolenza  Onda orograficha  Ceneri Vulcaniche







- Altitudine del aeroporto : 433 ft
- Carte del aeroporto


LFOC - Chateaudun

ULTIMO METAR :
  • 181130Z AUTO 15005KT CAVOK 03/M00 Q1019 NOSIG

METARs OBSOLETI :
  • 181100Z AUTO 14005KT CAVOK 02/M01 Q1020 NOSIG
  • 181030Z AUTO VRB02KT CAVOK 01/M00 Q1020 NOSIG
  • 181000Z AUTO 00000KT CAVOK M01/M02 Q1020 NOSIG
  • 180930Z AUTO 10002KT CAVOK M01/M02 Q1020 NOSIG
  • 180900Z AUTO 22002KT CAVOK M02/M03 Q1020 NOSIG

TAF TAF LFOC
Valido dal 18 a 09 ore il 19 a 09 ore UTC


180800Z 1809/1909 13008KT CAVOK
BECMG 1905/1907 4000 -RA BKN010
PROB40
TEMPO 1906/1908 3000 FZRA BKN008
Nessun NOTAM noto per questo aeroporto.



MetMap, La meteo Aeronautica in un colpo d'occhio ! - Copyright ORBIFLY Dicembre 2007 - Disclaimer

ORBIFLY MET'MAP TEAM :

Programmazione e sviluppo : Alexandra Zaïnal
Concezione e sviluppo : Baudouin d'Aumeries
Co-Programmazione e sviluppo : Marc-Olivier Méhu
Supporto tecnico e logistico : Manuel Goepfert
Aiuto per la traduzione : Arnaldo La Scala

Contatto : metmap@orbifly.com




FONTI E CREDITI :

   NOAA